Terminal Aerodrome Forecast
Issued by NWS Wilmington, NC

Current Version | Previous Version | Graphics & Text | Print | Product List | Glossary Off
Versions: 1 2 3 4 5 6 7 8 9 10 11 12 13 14 15 16 17

000
FTUS42 KILM 221813 AAA
TAFILM
TAF AMD
KILM 221813Z 2218/2318 12008KT P6SM VCSH SCT050
     FM230100 00000KT P6SM SKC
     FM231000 03005KT 5SM BR SKC
     FM231300 04006KT P6SM SKC=

USA.gov is the U.S. government's official web portal to all federal, state and local government web resources and services.